Time;durP1;ratioP1;P1;durP2;ratioP2;P2;SDS_P1;SDS_P2;PMS_P1;PMS_P2;Temp;Humidity;BMP_temperature;BMP_pressure;BME280_temperature;BME280_humidity;BME280_pressure;Samples;Min_cycle;Max_cycle;Signal;HPM_P1;HPM_P2
2023/05/26 00:01:20;;;;;;;18.90;4.50;;;9.70;99.90;;;;;;5090976;28;20934;-72
2023/05/26 00:03:48;;;;;;;20.13;6.23;;;9.70;99.90;;;;;;5095543;28;20256;-72
2023/05/26 00:06:16;;;;;;;32.73;5.77;;;9.70;99.90;;;;;;5091370;28;20209;-72
2023/05/26 00:08:43;;;;;;;18.17;4.87;;;9.70;99.90;;;;;;5096836;28;20202;-71
2023/05/26 00:11:09;;;;;;;14.57;4.23;;;9.60;99.90;;;;;;5092008;28;20203;-71
2023/05/26 00:13:36;;;;;;;20.73;4.57;;;9.60;99.90;;;;;;5094642;28;20249;-71
2023/05/26 00:16:03;;;;;;;18.00;5.37;;;9.60;99.90;;;;;;5090326;28;20682;-71
2023/05/26 00:18:31;;;;;;;19.77;5.20;;;9.60;99.90;;;;;;5093003;28;20671;-71
2023/05/26 00:20:58;;;;;;;21.97;4.97;;;9.50;99.90;;;;;;5091531;28;20299;-72
2023/05/26 00:23:25;;;;;;;21.47;4.50;;;9.60;99.90;;;;;;5091287;28;20243;-72
2023/05/26 00:25:52;;;;;;;20.67;4.37;;;9.50;99.90;;;;;;5090456;28;20636;-71
2023/05/26 00:28:19;;;;;;;21.40;4.30;;;9.50;99.90;;;;;;5076407;28;20232;-71
2023/05/26 00:30:46;;;;;;;18.47;4.10;;;9.50;99.90;;;;;;5089389;28;20241;-71
2023/05/26 00:33:13;;;;;;;11.20;4.43;;;9.50;99.90;;;;;;5091184;28;20663;-71
2023/05/26 00:35:40;;;;;;;20.67;4.10;;;9.50;99.90;;;;;;5058505;28;20226;-71
2023/05/26 00:38:07;;;;;;;19.77;4.37;;;9.40;99.90;;;;;;5090371;28;20250;-74
2023/05/26 00:40:34;;;;;;;20.60;4.50;;;9.40;99.90;;;;;;5090879;28;20204;-72
2023/05/26 00:43:01;;;;;;;18.90;4.77;;;9.40;99.90;;;;;;5091432;28;20240;-71
2023/05/26 00:45:28;;;;;;;16.07;4.47;;;9.40;99.90;;;;;;5091035;28;20562;-72
2023/05/26 00:47:54;;;;;;;12.57;4.33;;;9.40;99.90;;;;;;5090612;28;20292;-72
2023/05/26 00:50:22;;;;;;;18.17;5.30;;;9.40;99.90;;;;;;5090049;28;20668;-72
2023/05/26 00:52:50;;;;;;;15.17;3.97;;;9.40;99.90;;;;;;5087724;28;20259;-71
2023/05/26 00:55:18;;;;;;;24.20;5.00;;;9.30;99.90;;;;;;5086456;28;20816;-71
2023/05/26 00:57:45;;;;;;;21.77;4.67;;;9.30;99.90;;;;;;5090451;28;20280;-72
2023/05/26 01:00:13;;;;;;;20.97;4.93;;;9.30;99.90;;;;;;5074081;28;20246;-72
2023/05/26 01:02:40;;;;;;;19.17;4.50;;;9.20;99.90;;;;;;5094215;28;20276;-71
2023/05/26 01:05:08;;;;;;;16.80;4.73;;;9.20;99.90;;;;;;5089728;28;20207;-71
2023/05/26 01:07:36;;;;;;;17.87;4.47;;;9.20;99.90;;;;;;5090275;28;20242;-71
2023/05/26 01:10:03;;;;;;;15.50;3.70;;;9.10;99.90;;;;;;5090316;28;20730;-72
2023/05/26 01:12:38;;;;;;;22.43;4.90;;;9.10;99.90;;;;;;5087636;28;20235;-71
2023/05/26 01:15:17;;;;;;;11.83;3.97;;;9.00;99.90;;;;;;5087334;28;20236;-74
2023/05/26 01:17:55;;;;;;;23.00;4.90;;;9.00;99.90;;;;;;5088732;28;20240;-74
2023/05/26 01:20:27;;;;;;;15.03;3.67;;;8.90;99.90;;;;;;5086865;28;20211;-73
2023/05/26 01:23:23;;;;;;;19.80;4.80;;;8.90;99.90;;;;;;5070904;28;20206;-72
2023/05/26 01:26:37;;;;;;;23.13;5.63;;;8.90;99.90;;;;;;5090130;28;20202;-72
2023/05/26 01:29:16;;;;;;;24.87;4.00;;;8.80;99.90;;;;;;5034593;28;20219;-74
2023/05/26 01:31:43;;;;;;;21.10;4.93;;;8.80;99.90;;;;;;5089273;28;20218;-71
2023/05/26 01:34:09;;;;;;;24.43;5.20;;;8.70;99.90;;;;;;5089670;28;20241;-72
2023/05/26 01:36:37;;;;;;;18.47;4.60;;;8.70;99.90;;;;;;5089432;28;20230;-72
2023/05/26 01:39:07;;;;;;;15.07;3.90;;;8.60;99.90;;;;;;5088107;28;20658;-72
2023/05/26 01:41:50;;;;;;;13.83;4.43;;;8.60;99.90;;;;;;5090002;28;20216;-71
2023/05/26 01:44:45;;;;;;;20.77;4.13;;;8.60;99.90;;;;;;5085761;28;20643;-71
2023/05/26 01:47:14;;;;;;;19.77;4.50;;;8.60;99.90;;;;;;5080121;28;20222;-72
2023/05/26 01:49:46;;;;;;;20.43;4.77;;;8.50;99.90;;;;;;5089109;28;20204;-71
2023/05/26 01:52:17;;;;;;;22.37;5.00;;;8.50;99.90;;;;;;5092167;28;20203;-70
2023/05/26 01:54:50;;;;;;;14.90;4.10;;;8.50;99.90;;;;;;5086634;28;20237;-71
2023/05/26 01:57:17;;;;;;;23.23;5.60;;;8.50;99.90;;;;;;5086300;28;20226;-71
2023/05/26 01:59:44;;;;;;;13.87;4.50;;;8.40;99.90;;;;;;5075883;28;20210;-72
2023/05/26 02:02:11;;;;;;;19.67;5.00;;;8.40;99.90;;;;;;5085690;28;20225;-72
2023/05/26 02:04:38;;;;;;;17.77;4.27;;;8.40;99.90;;;;;;5089092;28;20206;-72
2023/05/26 02:07:05;;;;;;;18.00;4.23;;;8.30;99.90;;;;;;5090770;28;20205;-72
2023/05/26 02:09:32;;;;;;;18.43;4.67;;;8.30;99.90;;;;;;5089427;28;20258;-74
2023/05/26 02:11:59;;;;;;;18.93;4.20;;;8.20;99.90;;;;;;5090539;28;20204;-71
2023/05/26 02:14:26;;;;;;;16.53;4.20;;;8.20;99.90;;;;;;5091354;28;20677;-71
2023/05/26 02:16:53;;;;;;;20.00;5.07;;;8.20;99.90;;;;;;5088925;28;20222;-71
2023/05/26 02:19:19;;;;;;;18.57;4.47;;;8.10;99.90;;;;;;5086031;28;20208;-72
2023/05/26 02:21:46;;;;;;;20.00;4.37;;;8.10;99.90;;;;;;5087513;28;20216;-71
2023/05/26 02:24:13;;;;;;;21.97;4.03;;;8.10;99.90;;;;;;5088374;28;20207;-71
2023/05/26 02:26:40;;;;;;;20.03;3.73;;;8.10;99.90;;;;;;5089115;28;20198;-72
2023/05/26 02:29:06;;;;;;;15.80;4.40;;;8.10;99.90;;;;;;5087755;28;20208;-72
2023/05/26 02:31:34;;;;;;;22.73;4.60;;;8.10;99.90;;;;;;5084927;28;20224;-72
2023/05/26 02:34:10;;;;;;;21.03;4.90;;;8.10;99.90;;;;;;5090296;28;20211;-74
2023/05/26 02:36:37;;;;;;;12.33;4.37;;;8.10;99.90;;;;;;5087113;28;20262;-74
2023/05/26 02:39:04;;;;;;;21.83;4.17;;;8.10;99.90;;;;;;5069190;28;20278;-71
2023/05/26 02:41:30;;;;;;;18.40;4.50;;;8.10;99.90;;;;;;5088799;28;20286;-71
2023/05/26 02:43:57;;;;;;;16.53;4.13;;;8.10;99.90;;;;;;5089556;28;20253;-72
2023/05/26 02:46:24;;;;;;;20.03;4.80;;;8.10;99.90;;;;;;5089116;28;20218;-73
2023/05/26 02:48:51;;;;;;;14.87;4.27;;;8.20;99.90;;;;;;5089117;28;20207;-71
2023/05/26 02:51:19;;;;;;;21.73;4.30;;;8.20;99.90;;;;;;5092772;28;20202;-71
2023/05/26 02:53:46;;;;;;;20.03;4.30;;;8.30;99.90;;;;;;5089438;28;20207;-71
2023/05/26 02:56:12;;;;;;;10.87;4.40;;;8.30;99.90;;;;;;5091944;28;20895;-72
2023/05/26 02:58:39;;;;;;;12.23;3.73;;;8.30;99.90;;;;;;5092736;28;20237;-71
2023/05/26 03:01:07;;;;;;;17.13;4.40;;;8.30;99.90;;;;;;5092438;28;20234;-71
2023/05/26 03:03:35;;;;;;;19.23;4.70;;;8.30;99.90;;;;;;5092826;28;20197;-72
2023/05/26 03:06:03;;;;;;;21.13;4.47;;;8.40;99.90;;;;;;5092909;28;20431;-72
2023/05/26 03:08:30;;;;;;;15.33;4.40;;;8.30;99.90;;;;;;5093002;28;20209;-71
2023/05/26 03:10:57;;;;;;;20.43;5.10;;;8.30;99.90;;;;;;5093867;28;20203;-73
2023/05/26 03:13:37;;;;;;;20.90;4.90;;;8.30;99.90;;;;;;5073839;28;20299;-72
2023/05/26 03:16:04;;;;;;;23.07;4.90;;;8.20;99.90;;;;;;5092389;28;20313;-72
2023/05/26 03:18:32;;;;;;;15.17;4.37;;;8.20;99.90;;;;;;5074755;28;20619;-72
2023/05/26 03:20:59;;;;;;;16.93;4.87;;;8.10;99.90;;;;;;5094061;28;20544;-72
2023/05/26 03:23:27;;;;;;;24.23;4.40;;;8.10;99.90;;;;;;5092246;28;20197;-72
2023/05/26 03:25:54;;;;;;;17.63;4.90;;;8.10;99.90;;;;;;5092126;28;20250;-74
2023/05/26 03:28:21;;;;;;;20.57;5.37;;;8.10;99.90;;;;;;5092054;28;20717;-71
2023/05/26 03:30:48;;;;;;;26.43;4.90;;;8.00;99.90;;;;;;5091867;28;20305;-72
2023/05/26 03:33:15;;;;;;;20.03;5.30;;;8.00;99.90;;;;;;5079936;28;20262;-71
2023/05/26 03:35:41;;;;;;;19.87;4.30;;;8.00;99.90;;;;;;5090800;28;20293;-72
2023/05/26 03:38:08;;;;;;;18.03;4.33;;;8.00;99.90;;;;;;5074179;28;20213;-72
2023/05/26 03:40:35;;;;;;;20.43;5.00;;;8.00;99.90;;;;;;5091484;28;20653;-73
2023/05/26 03:43:02;;;;;;;20.13;4.53;;;8.10;99.90;;;;;;5091411;28;20312;-73
2023/05/26 03:45:29;;;;;;;13.70;3.73;;;8.00;99.90;;;;;;5091369;28;20214;-71
2023/05/26 03:47:56;;;;;;;25.97;5.03;;;8.00;99.90;;;;;;5074397;28;20227;-72
2023/05/26 03:50:23;;;;;;;22.90;4.70;;;8.00;99.90;;;;;;5087776;28;20278;-74
2023/05/26 03:52:50;;;;;;;18.93;4.87;;;8.20;99.90;;;;;;5091552;28;20849;-71
2023/05/26 03:55:17;;;;;;;15.67;3.83;;;8.30;99.90;;;;;;5089344;28;20332;-72
2023/05/26 03:57:44;;;;;;;13.17;3.53;;;8.20;99.90;;;;;;5090268;28;20708;-70
2023/05/26 04:00:12;;;;;;;19.73;4.53;;;8.10;99.90;;;;;;5091185;28;20216;-72
2023/05/26 04:02:39;;;;;;;16.10;5.43;;;8.10;99.90;;;;;;5088283;28;20220;-71
2023/05/26 04:05:07;;;;;;;15.23;5.00;;;8.10;99.90;;;;;;5094519;28;20213;-72
2023/05/26 04:07:34;;;;;;;16.87;4.83;;;8.20;99.90;;;;;;5090575;28;20557;-72
2023/05/26 04:10:01;;;;;;;17.03;4.20;;;8.30;99.90;;;;;;5091538;28;20247;-71
2023/05/26 04:12:27;;;;;;;18.63;4.10;;;8.20;99.90;;;;;;5090349;28;20220;-71
2023/05/26 04:14:54;;;;;;;13.67;3.90;;;8.30;99.90;;;;;;5091127;28;20783;-72
2023/05/26 04:17:22;;;;;;;14.90;3.77;;;8.30;99.90;;;;;;5091135;28;20712;-72
2023/05/26 04:19:49;;;;;;;15.33;4.17;;;8.40;99.90;;;;;;5085378;28;20624;-71
2023/05/26 04:22:15;;;;;;;18.83;5.53;;;8.40;99.90;;;;;;5095686;28;20201;-72
2023/05/26 04:24:42;;;;;;;19.60;4.70;;;8.50;99.90;;;;;;5091219;28;20202;-71
2023/05/26 04:27:09;;;;;;;20.60;5.03;;;8.50;99.90;;;;;;5091070;28;20610;-73
2023/05/26 04:29:36;;;;;;;19.07;4.63;;;8.60;99.90;;;;;;5089201;28;20221;-73
2023/05/26 04:32:03;;;;;;;16.63;4.80;;;8.70;99.90;;;;;;5088725;28;20797;-71
2023/05/26 04:34:30;;;;;;;17.87;4.50;;;8.80;99.90;;;;;;5090908;28;20683;-72
2023/05/26 04:37:03;;;;;;;11.50;4.27;;;8.80;99.90;;;;;;5092255;28;20208;-73
2023/05/26 04:39:31;;;;;;;16.43;3.73;;;8.90;99.90;;;;;;5081402;28;20694;-72
2023/05/26 04:41:58;;;;;;;18.80;4.73;;;9.00;99.90;;;;;;5090172;28;20207;-71
2023/05/26 04:44:25;;;;;;;16.80;4.17;;;9.20;99.90;;;;;;5090148;28;20839;-71
2023/05/26 04:46:53;;;;;;;20.30;4.50;;;9.10;99.90;;;;;;5090764;28;20231;-73
2023/05/26 04:49:23;;;;;;;19.77;3.80;;;9.30;99.90;;;;;;5090711;28;20301;-72
2023/05/26 04:51:55;;;;;;;23.17;4.53;;;9.50;99.90;;;;;;5093418;28;20210;-72
2023/05/26 04:54:23;;;;;;;10.37;3.37;;;10.10;99.90;;;;;;5089064;28;20204;-70
2023/05/26 04:56:50;;;;;;;11.77;3.50;;;9.70;99.90;;;;;;5090239;28;20239;-74
2023/05/26 04:59:17;;;;;;;14.10;3.50;;;9.80;99.90;;;;;;5090577;28;20215;-72
2023/05/26 05:01:47;;;;;;;15.57;3.93;;;9.70;99.90;;;;;;5090444;28;20261;-71
2023/05/26 05:04:14;;;;;;;14.90;4.27;;;9.80;99.90;;;;;;5090386;28;20284;-72
2023/05/26 05:06:41;;;;;;;17.53;4.63;;;9.90;99.90;;;;;;5090398;28;20670;-75
2023/05/26 05:09:08;;;;;;;12.97;2.97;;;9.90;99.90;;;;;;5089133;28;20573;-73
2023/05/26 05:11:35;;;;;;;14.43;4.00;;;10.10;99.90;;;;;;5086522;28;20205;-73
2023/05/26 05:16:44;;;;;;;15.47;4.20;;;10.30;99.90;;;;;;4890286;22;20576;-73
2023/05/26 05:19:13;;;;;;;15.30;4.13;;;10.50;99.90;;;;;;5045834;28;20210;-72
2023/05/26 05:21:39;;;;;;;18.57;3.97;;;10.70;99.90;;;;;;5046024;28;20215;-73
2023/05/26 05:24:07;;;;;;;15.23;3.63;;;10.70;99.90;;;;;;5050013;28;20643;-73
2023/05/26 05:26:34;;;;;;;12.13;4.03;;;10.90;99.90;;;;;;5045438;28;20256;-73
2023/05/26 05:29:01;;;;;;;9.00;3.33;;;11.10;99.90;;;;;;5049504;28;20219;-73
2023/05/26 05:31:29;;;;;;;16.37;3.80;;;11.30;99.90;;;;;;5050010;28;20229;-72
2023/05/26 05:33:56;;;;;;;14.00;3.43;;;11.60;99.90;;;;;;5050364;28;20213;-71
2023/05/26 05:36:23;;;;;;;16.03;4.17;;;12.00;99.90;;;;;;5049558;28;20596;-72
2023/05/26 05:38:50;;;;;;;19.00;4.13;;;12.50;99.90;;;;;;5042487;28;20206;-72
2023/05/26 05:41:17;;;;;;;11.10;3.30;;;13.00;99.90;;;;;;5050066;28;20205;-73
2023/05/26 05:43:44;;;;;;;18.93;3.83;;;13.60;99.90;;;;;;5047811;28;20193;-73
2023/05/26 05:46:11;;;;;;;17.57;4.13;;;14.00;99.90;;;;;;5026200;28;20283;-72
2023/05/26 05:48:39;;;;;;;10.93;3.50;;;14.20;99.90;;;;;;5046968;28;20259;-72
2023/05/26 05:51:06;;;;;;;20.52;3.50;;;14.70;99.90;;;;;;5044497;28;20201;-74
2023/05/26 05:53:33;;;;;;;19.33;3.60;;;15.40;99.90;;;;;;5041103;28;20653;-72
2023/05/26 05:56:00;;;;;;;15.73;3.38;;;16.10;99.90;;;;;;5050302;28;20295;-74
2023/05/26 05:58:30;;;;;;;11.65;3.13;;;16.50;99.90;;;;;;5045633;28;20298;-72
2023/05/26 06:00:57;;;;;;;15.23;3.50;;;16.90;99.90;;;;;;5040958;28;20225;-74
2023/05/26 06:03:24;;;;;;;12.85;3.42;;;16.90;99.90;;;;;;5049728;28;20196;-73
2023/05/26 06:05:52;;;;;;;20.95;3.88;;;17.30;99.90;;;;;;5046025;28;20201;-74
2023/05/26 06:08:18;;;;;;;15.13;3.28;;;17.50;99.90;;;;;;5045477;28;20206;-75
2023/05/26 06:10:45;;;;;;;10.60;3.35;;;17.90;99.90;;;;;;5028663;28;20197;-74
2023/05/26 06:13:12;;;;;;;11.23;3.28;;;18.30;99.90;;;;;;5045596;28;20204;-74
2023/05/26 06:15:39;;;;;;;13.27;3.10;;;18.60;99.90;;;;;;5044028;28;20457;-77
2023/05/26 06:18:06;;;;;;;18.33;5.10;;;18.60;99.90;;;;;;5046789;28;20237;-74
2023/05/26 06:20:33;;;;;;;28.15;5.57;;;18.70;99.90;;;;;;5044824;28;20210;-75
2023/05/26 06:23:00;;;;;;;13.15;3.85;;;18.80;99.90;;;;;;5045065;28;20205;-74
2023/05/26 06:25:27;;;;;;;13.70;3.67;;;18.90;99.90;;;;;;5050907;28;20205;-74
2023/05/26 06:27:54;;;;;;;20.30;3.80;;;19.00;99.90;;;;;;5053754;28;20209;-73
2023/05/26 06:30:21;;;;;;;13.85;3.42;;;19.10;99.90;;;;;;5051591;28;20197;-74
2023/05/26 06:32:48;;;;;;;13.25;3.50;;;19.00;99.90;;;;;;5052803;28;20225;-75
2023/05/26 06:35:15;;;;;;;13.38;3.08;;;19.00;99.90;;;;;;5052104;28;20260;-74
2023/05/26 06:37:41;;;;;;;12.80;2.80;;;19.40;99.90;;;;;;5048049;28;20735;-75
2023/05/26 06:40:09;;;;;;;15.80;3.78;;;19.90;99.90;;;;;;5045472;28;20657;-74
2023/05/26 06:42:35;;;;;;;13.82;3.45;;;20.10;99.90;;;;;;5041120;28;20202;-74
2023/05/26 06:45:02;;;;;;;10.50;3.20;;;20.30;99.90;;;;;;5039921;28;20227;-76
2023/05/26 06:47:29;;;;;;;18.88;3.20;;;20.30;99.90;;;;;;5048270;28;20221;-73
2023/05/26 06:49:56;;;;;;;16.27;3.90;;;20.30;99.90;;;;;;5041362;28;21055;-73
2023/05/26 06:52:23;;;;;;;18.55;4.80;;;20.20;99.90;;;;;;5046203;28;20251;-73
2023/05/26 06:54:50;;;;;;;10.05;3.10;;;20.20;99.90;;;;;;5049852;28;20331;-74
2023/05/26 06:57:17;;;;;;;13.60;3.38;;;20.50;99.90;;;;;;5049874;28;20271;-74
2023/05/26 06:59:44;;;;;;;17.42;4.30;;;20.50;99.90;;;;;;5049398;28;20220;-74
2023/05/26 07:02:11;;;;;;;17.30;3.85;;;20.60;99.90;;;;;;5051023;28;20220;-74
2023/05/26 07:04:38;;;;;;;20.05;4.65;;;20.70;99.90;;;;;;5048206;28;20251;-76
2023/05/26 07:07:05;;;;;;;17.95;3.92;;;20.90;99.90;;;;;;5051495;28;20315;-73
2023/05/26 07:09:32;;;;;;;18.15;3.95;;;20.90;99.90;;;;;;5029605;28;20287;-73
2023/05/26 07:11:58;;;;;;;24.38;4.82;;;20.80;99.90;;;;;;5044799;28;20202;-72
2023/05/26 07:14:25;;;;;;;12.90;3.72;;;20.30;99.90;;;;;;5050333;28;20201;-74
2023/05/26 07:16:52;;;;;;;11.70;3.50;;;19.90;99.90;;;;;;5048052;28;20276;-74
2023/05/26 07:19:19;;;;;;;12.00;3.33;;;19.50;99.90;;;;;;5048770;28;20212;-73
2023/05/26 07:21:46;;;;;;;18.98;3.95;;;19.30;99.90;;;;;;5040665;28;20653;-73
2023/05/26 07:24:12;;;;;;;11.15;3.30;;;19.00;99.90;;;;;;5049248;28;20200;-72
2023/05/26 07:26:39;;;;;;;23.30;5.30;;;18.90;99.90;;;;;;5051660;28;20213;-73
2023/05/26 07:29:06;;;;;;;12.95;4.03;;;19.20;99.90;;;;;;5051537;28;20205;-74
2023/05/26 07:31:33;;;;;;;16.90;3.78;;;19.70;99.90;;;;;;5051465;28;20226;-74
2023/05/26 07:34:00;;;;;;;13.93;3.55;;;20.30;99.90;;;;;;5049850;28;20247;-73
2023/05/26 07:36:27;;;;;;;17.30;4.38;;;20.60;99.90;;;;;;5050156;28;20232;-74
2023/05/26 07:38:54;;;;;;;11.32;3.38;;;20.90;99.90;;;;;;5043905;28;20678;-74
2023/05/26 07:41:21;;;;;;;16.55;3.53;;;21.00;99.90;;;;;;5050861;28;20213;-74
2023/05/26 07:43:48;;;;;;;13.27;3.83;;;21.30;99.90;;;;;;5050974;28;20213;-73
2023/05/26 07:46:15;;;;;;;11.63;3.50;;;21.40;99.90;;;;;;5051177;28;20270;-74
2023/05/26 07:48:42;;;;;;;13.00;3.92;;;21.90;99.90;;;;;;5051146;28;20209;-74
2023/05/26 07:51:09;;;;;;;11.07;3.42;;;22.00;99.90;;;;;;5033554;28;20209;-76
2023/05/26 07:53:36;;;;;;;9.00;3.25;;;22.00;99.90;;;;;;5043384;28;20205;-73
2023/05/26 07:56:03;;;;;;;11.27;3.20;;;22.30;99.90;;;;;;5046256;28;20247;-73
2023/05/26 07:58:30;;;;;;;12.75;3.38;;;22.70;99.90;;;;;;5049191;28;20193;-73
2023/05/26 08:00:57;;;;;;;11.38;3.20;;;22.70;99.90;;;;;;5051869;28;20325;-73
2023/05/26 08:03:24;;;;;;;14.40;3.42;;;22.80;99.90;;;;;;5056357;28;20263;-76
2023/05/26 08:05:51;;;;;;;12.43;3.30;;;22.80;99.90;;;;;;5055231;28;20208;-75
2023/05/26 08:08:18;;;;;;;12.20;3.28;;;22.80;99.90;;;;;;5029045;28;20308;-74
2023/05/26 08:10:44;;;;;;;11.93;3.45;;;23.10;99.90;;;;;;5052831;28;20205;-74
2023/05/26 08:13:12;;;;;;;10.25;3.15;;;23.50;99.90;;;;;;5051472;28;20286;-73
2023/05/26 08:15:39;;;;;;;10.90;3.22;;;23.60;99.90;;;;;;5045472;28;20201;-74
2023/05/26 08:18:06;;;;;;;12.00;2.95;;;23.60;99.90;;;;;;5050532;28;20695;-74
2023/05/26 08:20:33;;;;;;;12.75;3.78;;;23.50;99.60;;;;;;5028646;28;20751;-74
2023/05/26 08:23:00;;;;;;;13.05;3.90;;;23.30;99.80;;;;;;5053691;28;20262;-75
2023/05/26 08:25:27;;;;;;;16.58;4.35;;;23.30;99.90;;;;;;5054030;28;20255;-74
2023/05/26 08:27:54;;;;;;;15.20;4.00;;;23.20;99.90;;;;;;5048822;28;20235;-73
2023/05/26 08:30:21;;;;;;;15.95;3.72;;;23.20;99.90;;;;;;5051472;28;20574;-74
2023/05/26 08:32:48;;;;;;;10.40;3.38;;;23.00;99.90;;;;;;5047055;28;20692;-76
2023/05/26 08:35:15;;;;;;;12.00;3.10;;;22.80;99.90;;;;;;5049790;28;20556;-74
2023/05/26 08:37:42;;;;;;;17.35;3.65;;;22.90;99.60;;;;;;5041327;28;20525;-76
2023/05/26 08:40:09;;;;;;;12.60;3.53;;;22.70;99.50;;;;;;5050924;28;20271;-74
2023/05/26 08:42:45;;;;;;;14.70;3.15;;;22.50;99.30;;;;;;5045165;28;20241;-74
2023/05/26 08:45:13;;;;;;;18.73;3.70;;;22.60;99.00;;;;;;5050647;28;20209;-74
2023/05/26 08:47:42;;;;;;;10.57;3.15;;;22.70;98.90;;;;;;5026278;28;20229;-73
2023/05/26 08:50:11;;;;;;;16.63;3.22;;;22.70;98.30;;;;;;5046825;28;20256;-73
2023/05/26 08:52:42;;;;;;;13.30;3.28;;;22.90;98.30;;;;;;5032642;28;20209;-73
2023/05/26 08:55:39;;;;;;;22.42;4.18;;;22.90;98.30;;;;;;5048240;28;20559;-75
2023/05/26 08:58:07;;;;;;;13.23;3.10;;;23.00;98.10;;;;;;5034423;28;20201;-73
2023/05/26 09:00:34;;;;;;;14.45;3.67;;;23.20;97.60;;;;;;5035421;28;20269;-73
2023/05/26 09:03:02;;;;;;;20.08;4.00;;;23.30;97.40;;;;;;5053656;28;20213;-74
2023/05/26 09:05:30;;;;;;;14.85;3.95;;;23.20;96.70;;;;;;5048025;28;20193;-73
2023/05/26 09:07:57;;;;;;;10.20;2.90;;;23.20;96.20;;;;;;5051016;28;20235;-75
2023/05/26 09:10:28;;;;;;;8.85;2.95;;;23.00;96.20;;;;;;5046699;28;20298;-74
2023/05/26 09:13:06;;;;;;;13.45;3.50;;;22.70;96.60;;;;;;5049238;28;20196;-74
2023/05/26 09:15:34;;;;;;;11.32;3.33;;;22.70;96.80;;;;;;5054810;28;20204;-75
2023/05/26 09:18:03;;;;;;;13.70;4.00;;;22.60;96.90;;;;;;5055690;28;20637;-73
2023/05/26 09:20:30;;;;;;;9.43;3.55;;;22.40;96.90;;;;;;5060819;28;20461;-74
2023/05/26 09:22:58;;;;;;;18.83;3.80;;;22.50;96.80;;;;;;5041961;28;20214;-74
2023/05/26 09:25:36;;;;;;;12.82;3.78;;;22.40;97.20;;;;;;5053182;28;20307;-74
2023/05/26 09:28:07;;;;;;;13.32;3.97;;;22.30;97.80;;;;;;5055045;28;20205;-75
2023/05/26 09:30:43;;;;;;;9.48;3.63;;;22.20;97.90;;;;;;5054489;28;20247;-73
2023/05/26 09:33:19;;;;;;;12.48;3.65;;;22.20;97.50;;;;;;5049089;28;20252;-74
2023/05/26 09:35:48;;;;;;;12.02;3.72;;;22.10;97.50;;;;;;5049974;28;20256;-75
2023/05/26 09:38:17;;;;;;;7.30;3.00;;;21.90;98.00;;;;;;5061414;28;20220;-75
2023/05/26 09:40:46;;;;;;;11.15;3.38;;;21.90;98.50;;;;;;5062523;28;20251;-74
2023/05/26 09:43:15;;;;;;;14.55;3.60;;;21.80;98.60;;;;;;5055912;28;20218;-74
2023/05/26 09:45:42;;;;;;;14.70;3.80;;;21.80;98.50;;;;;;5052936;28;20201;-74
2023/05/26 09:48:09;;;;;;;8.15;3.33;;;21.90;98.40;;;;;;5060646;28;20205;-74
2023/05/26 09:50:38;;;;;;;12.50;3.25;;;21.80;98.20;;;;;;5045827;28;20246;-74
2023/05/26 09:53:10;;;;;;;15.32;3.75;;;21.80;98.30;;;;;;5062083;28;20194;-73
2023/05/26 09:55:39;;;;;;;10.95;3.40;;;21.70;98.50;;;;;;5044390;28;20197;-74
2023/05/26 09:58:07;;;;;;;14.73;3.25;;;21.80;98.70;;;;;;5059779;28;20251;-74
2023/05/26 10:00:35;;;;;;;11.30;2.97;;;21.90;98.50;;;;;;5038990;28;20205;-72
2023/05/26 10:03:03;;;;;;;12.93;2.80;;;21.90;98.50;;;;;;5044224;28;20201;-74
2023/05/26 10:05:36;;;;;;;12.95;4.00;;;21.90;98.30;;;;;;5053967;28;20189;-74
2023/05/26 10:08:06;;;;;;;8.93;4.28;;;21.90;97.70;;;;;;5057366;28;20236;-76
2023/05/26 10:10:34;;;;;;;12.60;3.45;;;21.90;98.00;;;;;;5042548;28;20201;-75
2023/05/26 10:13:03;;;;;;;10.00;3.30;;;21.90;98.30;;;;;;5050736;28;20216;-74
2023/05/26 10:15:30;;;;;;;12.23;2.85;;;21.90;98.10;;;;;;5039906;28;20595;-75
2023/05/26 10:17:58;;;;;;;15.45;3.55;;;21.80;97.80;;;;;;5048956;28;20236;-72
2023/05/26 10:20:25;;;;;;;13.73;3.70;;;21.80;97.70;;;;;;5044686;28;20285;-74
2023/05/26 10:23:07;;;;;;;11.20;3.15;;;22.00;97.70;;;;;;5028557;28;20263;-74
2023/05/26 10:25:38;;;;;;;15.80;3.60;;;22.00;97.50;;;;;;5047340;28;20216;-75
2023/05/26 10:28:36;;;;;;;11.43;3.22;;;21.90;98.20;;;;;;5043753;28;20656;-75
2023/05/26 10:31:03;;;;;;;10.27;3.05;;;21.80;97.40;;;;;;5047425;28;20229;-75
2023/05/26 10:33:43;;;;;;;7.00;2.92;;;21.80;97.80;;;;;;5044948;28;20197;-76
2023/05/26 10:36:16;;;;;;;12.73;3.45;;;21.80;98.10;;;;;;5056092;28;20282;-75
2023/05/26 10:38:53;;;;;;;26.08;3.40;;;21.80;98.00;;;;;;5045487;28;20203;-76
2023/05/26 10:41:31;;;;;;;10.38;3.55;;;22.00;98.00;;;;;;5046176;28;20628;-75
2023/05/26 10:44:00;;;;;;;11.02;3.42;;;22.20;98.00;;;;;;5044957;28;20233;-74
2023/05/26 10:46:45;;;;;;;12.55;3.58;;;22.30;98.20;;;;;;5045062;28;20224;-74
2023/05/26 10:49:20;;;;;;;17.83;3.58;;;22.30;97.70;;;;;;5049633;28;20204;-74
2023/05/26 10:51:52;;;;;;;13.88;3.67;;;22.20;97.70;;;;;;5045551;28;20193;-76
2023/05/26 10:54:22;;;;;;;12.23;4.03;;;22.10;98.10;;;;;;5051419;28;20207;-75
2023/05/26 10:56:51;;;;;;;9.18;3.30;;;22.10;98.30;;;;;;5044476;28;20225;-76
2023/05/26 10:59:33;;;;;;;11.55;3.58;;;22.00;98.10;;;;;;5031482;28;20277;-74
2023/05/26 11:02:05;;;;;;;9.80;3.00;;;21.90;97.90;;;;;;5040784;28;20224;-75
2023/05/26 11:04:46;;;;;;;9.13;2.90;;;21.70;97.90;;;;;;5037457;28;20209;-75
2023/05/26 11:07:21;;;;;;;12.15;3.33;;;21.60;98.00;;;;;;5043938;28;20284;-75
2023/05/26 11:10:02;;;;;;;6.43;3.25;;;21.50;98.70;;;;;;5038749;28;20200;-74
2023/05/26 11:12:46;;;;;;;8.18;2.90;;;21.60;98.20;;;;;;5029810;28;20271;-74
2023/05/26 11:15:30;;;;;;;11.25;3.65;;;21.70;98.30;;;;;;5044255;28;20205;-76
2023/05/26 11:18:08;;;;;;;14.27;3.47;;;21.50;99.20;;;;;;5043507;28;20291;-75
2023/05/26 11:20:36;;;;;;;10.32;3.13;;;21.50;98.90;;;;;;5043884;28;20204;-74
2023/05/26 11:23:03;;;;;;;8.65;2.85;;;21.50;98.80;;;;;;5026768;28;20201;-75
2023/05/26 11:25:30;;;;;;;10.50;3.17;;;21.60;97.80;;;;;;5026771;28;20205;-73
2023/05/26 11:27:57;;;;;;;7.20;3.38;;;21.40;97.20;;;;;;5032555;28;20292;-75
2023/05/26 11:30:34;;;;;;;10.88;3.22;;;21.30;97.40;;;;;;5051362;28;20540;-75
2023/05/26 11:33:10;;;;;;;10.77;3.15;;;21.30;97.30;;;;;;5044356;28;20299;-76
2023/05/26 11:35:37;;;;;;;8.13;3.13;;;21.10;97.10;;;;;;5040858;28;20671;-74
2023/05/26 11:38:04;;;;;;;7.70;2.30;;;21.20;97.60;;;;;;5026056;28;20700;-73
2023/05/26 11:40:32;;;;;;;8.52;3.00;;;21.30;97.80;;;;;;5047430;28;20201;-74
2023/05/26 11:42:59;;;;;;;8.48;2.65;;;21.50;97.20;;;;;;5051920;28;20649;-74
2023/05/26 11:45:25;;;;;;;10.63;2.80;;;21.50;96.60;;;;;;5046730;28;20216;-74
2023/05/26 11:47:52;;;;;;;7.80;2.53;;;21.40;96.30;;;;;;5047152;28;20591;-73
2023/05/26 11:50:19;;;;;;;6.00;2.10;;;21.30;95.90;;;;;;5049115;28;20205;-74
2023/05/26 11:52:48;;;;;;;5.93;2.17;;;21.30;96.20;;;;;;5043510;28;20201;-74
2023/05/26 11:55:17;;;;;;;9.95;2.90;;;21.20;96.30;;;;;;5047557;28;20201;-72
2023/05/26 11:57:46;;;;;;;9.75;2.67;;;21.20;96.50;;;;;;5046888;28;20229;-75
2023/05/26 12:00:18;;;;;;;8.75;2.75;;;21.40;97.20;;;;;;5046218;28;20207;-73
2023/05/26 12:02:46;;;;;;;9.07;2.75;;;21.50;97.80;;;;;;5042554;28;20262;-74
2023/05/26 12:05:26;;;;;;;11.05;3.53;;;21.60;97.20;;;;;;5047849;28;20190;-75
2023/05/26 12:08:09;;;;;;;11.38;3.05;;;21.70;96.50;;;;;;5046024;28;20278;-76
2023/05/26 12:10:40;;;;;;;6.82;2.45;;;21.50;96.20;;;;;;5042398;28;20209;-73
2023/05/26 12:13:07;;;;;;;16.33;3.88;;;21.50;96.10;;;;;;5047144;28;20201;-72
2023/05/26 12:15:34;;;;;;;8.55;2.92;;;21.50;96.00;;;;;;5048959;28;20239;-73
2023/05/26 12:18:02;;;;;;;26.98;4.80;;;21.60;96.40;;;;;;5046817;28;20290;-73
2023/05/26 12:20:29;;;;;;;11.77;3.08;;;21.50;96.40;;;;;;5049389;28;20285;-73
2023/05/26 12:23:02;;;;;;;7.53;2.90;;;21.60;96.70;;;;;;5045766;28;20267;-74
2023/05/26 12:25:31;;;;;;;8.77;2.80;;;21.60;96.30;;;;;;5032055;28;20247;-73
2023/05/26 12:27:58;;;;;;;10.45;2.97;;;21.70;96.50;;;;;;5048988;28;20657;-72
2023/05/26 12:30:27;;;;;;;17.58;3.53;;;21.60;96.50;;;;;;5046525;28;20248;-73
2023/05/26 12:33:02;;;;;;;11.15;3.08;;;21.70;96.50;;;;;;5049460;28;20201;-73
2023/05/26 12:35:29;;;;;;;8.63;2.75;;;21.80;96.80;;;;;;5047654;28;20284;-77
2023/05/26 12:37:55;;;;;;;9.77;2.58;;;21.80;96.70;;;;;;5033154;28;20228;-74
2023/05/26 12:40:22;;;;;;;10.38;3.38;;;22.10;96.60;;;;;;5044411;28;20685;-73
2023/05/26 12:42:50;;;;;;;10.70;2.70;;;22.10;95.80;;;;;;5045523;28;20201;-75
2023/05/26 12:45:16;;;;;;;9.32;2.35;;;22.10;95.50;;;;;;5046082;28;20209;-72
2023/05/26 12:47:43;;;;;;;8.52;2.25;;;22.20;94.90;;;;;;5046274;28;20217;-73
2023/05/26 12:50:12;;;;;;;11.05;2.58;;;22.30;94.90;;;;;;5044415;28;20368;-74
2023/05/26 12:52:38;;;;;;;8.45;2.80;;;22.30;94.80;;;;;;5050079;28;20301;-73
2023/05/26 12:55:06;;;;;;;7.38;2.28;;;22.40;94.70;;;;;;5045447;28;20205;-74